New Richmond, WI

12:00 AM CDT del 29 Settembre 2016 (GMT -0500)
Country View Ridge | | Change Station

Alt. 971 ft 45.10 °N, 92.60 °W | Updated 13 seconds ago

Clear
Sereno
48.0 °F
Sembra 48 °F
N
0.2
Vento Variabile Vento da NO
Gusts 2.5 mph

Oggi
Massima -- | Minima -- °F
--% Possibilità di precip.
Ieri
Massima -- | Minima -- °F
Precip. -- in
Pressione 30.37 in
Visibilità 10.0 miglia
Nuvole Sereno
Raffreddamento del vento 48 °F
Punto di rugiada 38 °F
Umidità 68%
Piovosità in
Spessore del manto nevoso Non disponibile.
7:06 AM 6:53 PM
Luna calante, 3% visible
METAR KRNH 290435Z AUTO 36004KT 10SM CLR 09/09 A3037 RMK AO2 T00920086
Pressione 30.37 in
Visibilità 10.0 miglia
Nuvole Sereno
Raffreddamento del vento 48 °F
Punto di rugiada 38 °F
Umidità 68%
Piovosità in
Spessore del manto nevoso Non disponibile.
7:06 AM 6:53 PM
Luna calante, 3% visible
METAR KRNH 290435Z AUTO 36004KT 10SM CLR 09/09 A3037 RMK AO2 T00920086

10-Day Weather Forecast

Almanac

Astronomia

Sep. 29, 2016 Alba Tramonto
Ora attuale
Crepuscolo civile
Crepuscolo nautico
Crepuscolo astronomico
Luna
Estensione della luce visibile
Lunghezza del giorno
Tomorrow will be .
, % of the Moon is Illuminated

Gli estremi di oggi

State Highs State Lows

Community

WunderPhotos

Upload Photos

1,942,435 foto caricate!

WunderBlog® & News

Nearby

Qualità dell'aria

  Qualità dell'aria Indice AQ Inquinante
Not available.

Profondità neve

Stazione Profondità Altitudine

Attività sismica

Città  Distanza Mag. Data & Ora
Minimo Magnitudo Mostrato è 2.5.

Temperature delle acque costiere

Località Temperatura

Stations

Stazioni meteo nelle vicinanze

Ubicazione della stazione Temp. Raffreddamento del vento Punto di rugiada Umidità Vento Precip. Alt. Aggiornato Tipo
                   

Watches & Warnings

There are currently no watches in effect.